createdAt,value
2023-05-05T00:01:37.853Z,99748.00
2023-05-05T00:04:05.126Z,99748.75
2023-05-05T00:06:58.387Z,99748.06
2023-05-05T00:09:25.357Z,99741.63
2023-05-05T00:11:52.152Z,99742.78
2023-05-05T00:14:19.261Z,99741.88
2023-05-05T00:16:46.409Z,99738.34
2023-05-05T00:19:13.321Z,99739.88
2023-05-05T00:21:40.223Z,99739.38
2023-05-05T00:24:08.514Z,99741.13
2023-05-05T00:26:35.733Z,99733.66
2023-05-05T00:29:03.242Z,99732.88
2023-05-05T00:31:30.111Z,99737.84
2023-05-05T00:33:57.238Z,99739.00
2023-05-05T00:36:24.230Z,99737.19
2023-05-05T00:38:51.106Z,99734.56
2023-05-05T00:41:19.434Z,99741.41
2023-05-05T00:43:46.545Z,99742.00
2023-05-05T00:46:23.586Z,99744.72
2023-05-05T00:48:51.321Z,99735.78
2023-05-05T00:51:20.343Z,99739.56
2023-05-05T00:53:48.050Z,99738.53
2023-05-05T00:56:16.628Z,99733.06
2023-05-05T00:58:46.410Z,99738.03
2023-05-05T01:01:14.482Z,99741.00
2023-05-05T01:03:42.299Z,99730.41
2023-05-05T01:06:24.526Z,99732.06
2023-05-05T01:09:08.190Z,99739.16
2023-05-05T01:11:46.226Z,99744.53
2023-05-05T01:14:24.341Z,99736.34
2023-05-05T01:16:59.909Z,99735.22
2023-05-05T01:20:02.455Z,99739.16
2023-05-05T01:22:38.694Z,99730.50
2023-05-05T01:25:37.382Z,99731.72
2023-05-05T01:28:27.670Z,99731.00
2023-05-05T01:31:47.243Z,99732.72
2023-05-05T01:34:22.126Z,99731.16
2023-05-05T01:36:58.580Z,99725.03
2023-05-05T01:39:34.764Z,99716.34
2023-05-05T01:42:09.789Z,99725.59
2023-05-05T01:44:38.183Z,99722.38
2023-05-05T01:47:06.511Z,99726.25
2023-05-05T01:49:38.102Z,99714.31
2023-05-05T01:52:08.827Z,99717.59
2023-05-05T01:54:38.081Z,99713.81
2023-05-05T01:57:31.133Z,99718.09
2023-05-05T02:00:23.411Z,99722.03
2023-05-05T02:03:24.487Z,99723.47
2023-05-05T02:05:55.870Z,99733.88
2023-05-05T02:08:25.757Z,99737.16
2023-05-05T02:10:54.492Z,99736.09
2023-05-05T02:13:24.815Z,99742.28
2023-05-05T02:15:53.303Z,99741.44
2023-05-05T02:18:22.856Z,99745.53
2023-05-05T02:20:50.607Z,99745.03
2023-05-05T02:23:19.447Z,99739.69
2023-05-05T02:25:51.028Z,99743.97
2023-05-05T02:28:22.892Z,99754.69
2023-05-05T02:30:59.147Z,99752.94
2023-05-05T02:33:34.145Z,99753.28
2023-05-05T02:36:10.177Z,99756.34
2023-05-05T02:38:48.468Z,99756.09
2023-05-05T02:41:20.939Z,99761.06
2023-05-05T02:43:51.025Z,99761.38
2023-05-05T02:46:19.495Z,99763.53
2023-05-05T02:48:48.050Z,99770.28
2023-05-05T02:51:15.672Z,99768.44
2023-05-05T02:53:44.232Z,99769.28
2023-05-05T02:56:26.922Z,99775.59
2023-05-05T02:59:08.652Z,99770.97
2023-05-05T03:01:51.414Z,99778.81
2023-05-05T03:04:27.073Z,99778.56
2023-05-05T03:07:18.017Z,99781.28
2023-05-05T03:10:18.204Z,99781.44
2023-05-05T03:12:54.321Z,99771.03
2023-05-05T03:15:35.771Z,99776.59
2023-05-05T03:18:06.266Z,99784.78
2023-05-05T03:20:34.824Z,99777.81
2023-05-05T03:23:07.449Z,99772.84
2023-05-05T03:25:46.560Z,99777.59
2023-05-05T03:28:21.581Z,99779.25
2023-05-05T03:30:48.744Z,99780.88
2023-05-05T03:33:17.979Z,99781.72
2023-05-05T03:35:45.744Z,99789.16
2023-05-05T03:38:13.900Z,99782.66
2023-05-05T03:40:44.559Z,99778.63
2023-05-05T03:43:15.588Z,99779.84
2023-05-05T03:45:42.920Z,99773.91
2023-05-05T03:48:10.831Z,99774.75
2023-05-05T03:50:39.644Z,99777.09
2023-05-05T03:53:07.659Z,99777.56
2023-05-05T03:55:34.745Z,99775.22
2023-05-05T03:58:02.209Z,99774.28
2023-05-05T04:00:30.482Z,99777.84
2023-05-05T04:02:57.499Z,99777.81
2023-05-05T04:05:26.555Z,99782.41
2023-05-05T04:07:53.835Z,99783.47
2023-05-05T04:10:20.920Z,99782.88
2023-05-05T04:12:48.970Z,99775.63
2023-05-05T04:15:16.159Z,99785.09
2023-05-05T04:17:45.289Z,99784.97
2023-05-05T04:20:12.602Z,99781.03
2023-05-05T04:22:40.380Z,99780.41
2023-05-05T04:25:08.108Z,99779.78
2023-05-05T04:27:35.601Z,99780.94
2023-05-05T04:30:03.068Z,99778.94
2023-05-05T04:32:32.422Z,99787.03
2023-05-05T04:35:01.155Z,99785.22
2023-05-05T04:37:28.534Z,99781.19
2023-05-05T04:39:56.768Z,99780.78
2023-05-05T04:42:23.970Z,99788.88
2023-05-05T04:44:52.046Z,99791.97
2023-05-05T04:47:18.894Z,99790.47
2023-05-05T04:49:45.873Z,99801.56
2023-05-05T04:52:14.211Z,99795.78
2023-05-05T04:54:41.057Z,99802.06
2023-05-05T04:57:07.879Z,99797.78
2023-05-05T04:59:36.030Z,99806.91
2023-05-05T05:02:02.826Z,99792.78
2023-05-05T05:04:29.820Z,99802.59
2023-05-05T05:07:00.837Z,99807.56
2023-05-05T05:09:29.058Z,99797.06
2023-05-05T05:11:59.991Z,99808.69
2023-05-05T05:14:26.830Z,99808.06
2023-05-05T05:16:53.890Z,99808.44
2023-05-05T05:19:22.778Z,99816.03
2023-05-05T05:21:49.571Z,99827.81
2023-05-05T05:24:16.537Z,99822.88
2023-05-05T05:26:45.381Z,99830.53
2023-05-05T05:29:13.076Z,99826.38
2023-05-05T05:31:39.969Z,99827.38
2023-05-05T05:34:07.168Z,99832.47
2023-05-05T05:36:35.679Z,99825.34
2023-05-05T05:39:03.569Z,99825.69
2023-05-05T05:41:30.704Z,99825.75
2023-05-05T05:43:59.174Z,99826.06
2023-05-05T05:46:27.680Z,99821.94
2023-05-05T05:48:55.027Z,99821.69
2023-05-05T05:51:22.091Z,99832.69
2023-05-05T05:53:50.094Z,99829.59
2023-05-05T05:56:16.888Z,99841.63
2023-05-05T05:58:44.058Z,99831.81
2023-05-05T06:01:12.626Z,99841.44
2023-05-05T06:03:39.745Z,99838.13
2023-05-05T06:06:07.389Z,99842.91
2023-05-05T06:08:35.933Z,99847.03
2023-05-05T06:11:02.977Z,99840.75
2023-05-05T06:13:30.750Z,99849.72
2023-05-05T06:15:58.131Z,99845.88
2023-05-05T06:18:26.557Z,99855.41
2023-05-05T06:20:53.387Z,99852.13
2023-05-05T06:23:25.588Z,99849.91
2023-05-05T06:25:57.562Z,99841.09
2023-05-05T06:28:24.497Z,99847.22
2023-05-05T06:30:51.516Z,99846.31
2023-05-05T06:33:21.940Z,99851.06
2023-05-05T06:35:51.824Z,99843.88
2023-05-05T06:38:18.704Z,99842.16
2023-05-05T06:40:48.157Z,99833.72
2023-05-05T06:43:15.803Z,99846.34
2023-05-05T06:45:47.096Z,99838.56
2023-05-05T06:48:13.973Z,99843.38
2023-05-05T06:50:41.113Z,99847.94
2023-05-05T06:53:09.321Z,99843.91
2023-05-05T06:55:37.177Z,99848.00
2023-05-05T06:58:09.098Z,99850.94
2023-05-05T07:00:37.319Z,99850.06
2023-05-05T07:03:04.601Z,99852.06
2023-05-05T07:05:32.248Z,99850.22
2023-05-05T07:07:59.534Z,99854.63
2023-05-05T07:10:28.281Z,99854.59
2023-05-05T07:12:55.423Z,99850.88
2023-05-05T07:15:28.643Z,99853.59
2023-05-05T07:17:58.188Z,99846.72
2023-05-05T07:20:25.829Z,99849.38
2023-05-05T07:22:54.221Z,99847.13
2023-05-05T07:25:21.519Z,99845.63
2023-05-05T07:27:50.406Z,99851.72
2023-05-05T07:30:19.065Z,99856.53
2023-05-05T07:32:46.758Z,99852.53
2023-05-05T07:35:13.963Z,99841.34
2023-05-05T07:37:40.827Z,99854.06
2023-05-05T07:40:09.304Z,99852.94
2023-05-05T07:42:36.419Z,99848.34
2023-05-05T07:45:07.398Z,99849.56
2023-05-05T07:47:35.291Z,99859.28
2023-05-05T07:50:02.318Z,99851.00
2023-05-05T07:52:44.180Z,99844.56
2023-05-05T07:55:15.041Z,99849.31
2023-05-05T07:57:42.373Z,99850.69
2023-05-05T08:00:13.422Z,99857.50
2023-05-05T08:02:41.285Z,99862.66
2023-05-05T08:05:09.252Z,99866.66
2023-05-05T08:07:36.690Z,99854.78
2023-05-05T08:10:05.028Z,99845.72
2023-05-05T08:12:32.557Z,99859.91
2023-05-05T08:14:59.439Z,99853.94
2023-05-05T08:17:28.677Z,99861.81
2023-05-05T08:19:56.158Z,99856.19
2023-05-05T08:22:23.019Z,99855.84
2023-05-05T08:24:50.089Z,99859.41
2023-05-05T08:27:17.720Z,99862.19
2023-05-05T08:29:44.811Z,99858.06
2023-05-05T08:32:11.706Z,99869.19
2023-05-05T08:34:40.312Z,99868.03
2023-05-05T08:37:07.295Z,99871.75
2023-05-05T08:39:34.169Z,99876.53
2023-05-05T08:42:01.116Z,99874.66
2023-05-05T08:44:28.314Z,99875.34
2023-05-05T08:46:56.526Z,99869.78
2023-05-05T08:49:25.956Z,99868.31
2023-05-05T08:51:55.238Z,99868.97
2023-05-05T08:54:29.431Z,99863.56
2023-05-05T08:57:02.405Z,99867.97
2023-05-05T08:59:31.918Z,99872.13
2023-05-05T09:02:01.752Z,99866.97
2023-05-05T09:04:29.511Z,99875.06
2023-05-05T09:07:00.427Z,99868.59
2023-05-05T09:09:28.400Z,99870.44
2023-05-05T09:11:58.790Z,99857.72
2023-05-05T09:14:25.577Z,99860.69
2023-05-05T09:16:52.522Z,99871.97
2023-05-05T09:19:20.306Z,99869.09
2023-05-05T09:21:47.761Z,99866.81
2023-05-05T09:24:15.979Z,99860.97
2023-05-05T09:26:45.382Z,99869.84
2023-05-05T09:29:18.727Z,99861.09
2023-05-05T09:32:01.576Z,99861.72
2023-05-05T09:34:28.746Z,99859.25
2023-05-05T09:36:55.719Z,99860.34
2023-05-05T09:39:23.859Z,99865.25
2023-05-05T09:41:50.768Z,99858.69
2023-05-05T09:44:34.284Z,99851.72
2023-05-05T09:47:01.253Z,99858.16
2023-05-05T09:49:28.567Z,99857.13
2023-05-05T09:51:55.465Z,99856.00
2023-05-05T09:54:26.067Z,99858.91
2023-05-05T09:56:54.514Z,99847.56
2023-05-05T09:59:22.689Z,99857.16
2023-05-05T10:01:50.571Z,99853.47
2023-05-05T10:04:25.166Z,99854.06
2023-05-05T10:06:52.459Z,99848.56
2023-05-05T10:09:20.597Z,99851.00
2023-05-05T10:11:50.906Z,99854.03
2023-05-05T10:14:19.833Z,99851.16
2023-05-05T10:16:49.751Z,99858.53
2023-05-05T10:19:19.908Z,99851.69
2023-05-05T10:21:52.578Z,99849.72
2023-05-05T10:24:34.524Z,99848.06
2023-05-05T10:27:13.450Z,99837.53
2023-05-05T10:29:52.149Z,99847.06
2023-05-05T10:32:50.252Z,99836.88
2023-05-05T10:35:19.514Z,99841.53
2023-05-05T10:37:48.619Z,99836.22
2023-05-05T10:40:17.461Z,99836.25
2023-05-05T10:42:47.123Z,99839.81
2023-05-05T10:45:15.010Z,99839.78
2023-05-05T10:47:43.037Z,99834.34
2023-05-05T10:50:26.628Z,99834.09
2023-05-05T10:53:07.327Z,99830.56
2023-05-05T10:55:44.397Z,99824.22
2023-05-05T10:58:32.010Z,99823.09
2023-05-05T11:00:59.150Z,99821.69
2023-05-05T11:03:26.422Z,99818.88
2023-05-05T11:06:13.025Z,99814.06
2023-05-05T11:08:42.618Z,99810.19
2023-05-05T11:11:11.550Z,99804.13
2023-05-05T11:13:41.101Z,99804.97
2023-05-05T11:16:44.957Z,99802.19
2023-05-05T11:19:54.750Z,99802.19
2023-05-05T11:22:21.985Z,99797.50
2023-05-05T11:24:49.173Z,99788.38
2023-05-05T11:27:16.031Z,99793.63
2023-05-05T11:30:08.462Z,99790.50
2023-05-05T11:32:35.739Z,99794.06
2023-05-05T11:35:03.407Z,99795.50
2023-05-05T11:37:30.676Z,99796.56
2023-05-05T11:40:17.756Z,99795.66
2023-05-05T11:42:45.600Z,99784.81
2023-05-05T11:45:24.907Z,99793.13
2023-05-05T11:47:51.829Z,99784.09
2023-05-05T11:50:20.745Z,99791.16
2023-05-05T11:52:48.000Z,99785.63
2023-05-05T11:55:22.919Z,99782.84
2023-05-05T11:57:50.059Z,99778.50
2023-05-05T12:00:17.987Z,99780.59
2023-05-05T12:02:46.612Z,99775.72
2023-05-05T12:05:20.348Z,99778.53
2023-05-05T12:07:47.600Z,99774.72
2023-05-05T12:10:22.863Z,99766.00
2023-05-05T12:12:49.988Z,99769.59
2023-05-05T12:15:28.696Z,99763.91
2023-05-05T12:17:57.130Z,99757.13
2023-05-05T12:20:33.031Z,99762.59
2023-05-05T12:23:01.974Z,99758.84
2023-05-05T12:25:37.180Z,99755.38
2023-05-05T12:28:08.039Z,99751.47
2023-05-05T12:30:36.064Z,99750.19
2023-05-05T12:33:06.551Z,99750.16
2023-05-05T12:35:34.977Z,99737.31
2023-05-05T12:38:02.198Z,99738.31
2023-05-05T12:40:49.806Z,99729.97
2023-05-05T12:43:31.365Z,99728.94
2023-05-05T12:46:03.980Z,99730.28
2023-05-05T12:48:36.588Z,99732.38
2023-05-05T12:51:20.019Z,99723.28
2023-05-05T12:53:49.515Z,99714.16
2023-05-05T12:56:37.019Z,99710.03
2023-05-05T12:59:06.401Z,99722.00
2023-05-05T13:01:34.643Z,99705.16
2023-05-05T13:04:14.375Z,99701.69
2023-05-05T13:06:43.789Z,99699.00
2023-05-05T13:09:24.084Z,99691.13
2023-05-05T13:11:51.386Z,99699.34
2023-05-05T13:14:18.885Z,99699.56
2023-05-05T13:16:46.143Z,99704.56
2023-05-05T13:19:14.706Z,99693.16
2023-05-05T13:21:42.969Z,99683.41
2023-05-05T13:24:23.038Z,99674.72
2023-05-05T13:26:53.779Z,99668.81
2023-05-05T13:29:20.792Z,99673.59
2023-05-05T13:31:47.828Z,99672.41
2023-05-05T13:34:16.469Z,99668.78
2023-05-05T13:36:43.292Z,99659.78
2023-05-05T13:39:10.527Z,99655.06
2023-05-05T13:41:38.698Z,99660.69
2023-05-05T13:44:05.550Z,99657.41
2023-05-05T13:46:32.487Z,99653.03
2023-05-05T13:48:59.349Z,99644.75
2023-05-05T13:51:27.627Z,99642.66
2023-05-05T13:53:54.782Z,99639.53
2023-05-05T13:56:21.742Z,99633.19
2023-05-05T13:58:48.675Z,99630.06
2023-05-05T14:01:15.680Z,99628.81
2023-05-05T14:03:42.819Z,99616.38
2023-05-05T14:06:10.088Z,99618.34
2023-05-05T14:08:38.391Z,99611.78
2023-05-05T14:11:05.474Z,99603.97
2023-05-05T14:13:33.909Z,99602.69
2023-05-05T14:16:00.912Z,99603.50
2023-05-05T14:18:28.072Z,99598.44
2023-05-05T14:20:55.085Z,99597.31
2023-05-05T14:23:22.927Z,99605.53
2023-05-05T14:25:51.203Z,99602.09
2023-05-05T14:28:18.087Z,99599.28
2023-05-05T14:30:44.997Z,99602.09
2023-05-05T14:33:11.977Z,99602.09
2023-05-05T14:35:40.001Z,99612.38
2023-05-05T14:38:06.898Z,99611.09
2023-05-05T14:40:34.223Z,99603.66
2023-05-05T14:43:02.594Z,99605.63
2023-05-05T14:45:29.602Z,99602.84
2023-05-05T14:47:57.163Z,99606.72
2023-05-05T14:50:24.132Z,99606.25
2023-05-05T14:52:51.004Z,99610.44
2023-05-05T14:55:18.181Z,99607.06
2023-05-05T14:57:45.132Z,99602.50
2023-05-05T15:00:14.856Z,99600.75
2023-05-05T15:02:41.861Z,99600.47
2023-05-05T15:05:11.196Z,99599.72
2023-05-05T15:07:38.255Z,99601.34
2023-05-05T15:10:07.083Z,99591.72
2023-05-05T15:12:34.091Z,99591.56
2023-05-05T15:15:01.078Z,99581.53
2023-05-05T15:17:29.928Z,99576.75
2023-05-05T15:19:56.879Z,99571.34
2023-05-05T15:22:24.038Z,99562.41
2023-05-05T15:24:51.089Z,99564.16
2023-05-05T15:27:18.336Z,99570.22
2023-05-05T15:29:45.367Z,99569.97
2023-05-05T15:32:12.352Z,99570.78
2023-05-05T15:34:41.167Z,99566.38
2023-05-05T15:37:08.034Z,99572.38
2023-05-05T15:39:36.825Z,99568.34
2023-05-05T15:42:04.410Z,99558.56
2023-05-05T15:44:31.967Z,99559.75
2023-05-05T15:46:58.946Z,99554.53
2023-05-05T15:49:26.064Z,99554.19
2023-05-05T15:51:54.336Z,99553.31
2023-05-05T15:54:22.588Z,99554.69
2023-05-05T15:56:49.540Z,99552.22
2023-05-05T15:59:16.887Z,99553.16
2023-05-05T16:01:44.064Z,99557.09
2023-05-05T16:04:11.004Z,99564.13
2023-05-05T16:06:38.033Z,99566.72
2023-05-05T16:09:06.316Z,99571.25
2023-05-05T16:11:33.782Z,99572.38
2023-05-05T16:14:00.872Z,99579.28
2023-05-05T16:16:27.871Z,99590.09
2023-05-05T16:18:54.970Z,99596.00
2023-05-05T16:21:22.246Z,99599.25
2023-05-05T16:23:50.063Z,99601.66
2023-05-05T16:26:18.487Z,99621.44
2023-05-05T16:28:45.451Z,99653.34
2023-05-05T16:31:12.448Z,99692.50
2023-05-05T16:33:39.584Z,99718.75
2023-05-05T16:36:08.648Z,99754.44
2023-05-05T16:38:36.020Z,99771.84
2023-05-05T16:41:02.917Z,99789.38
2023-05-05T16:43:33.845Z,99794.53
2023-05-05T16:46:00.735Z,99804.97
2023-05-05T16:49:17.475Z,99800.44
2023-05-05T16:51:46.168Z,99787.53
2023-05-05T16:54:13.096Z,99784.38
2023-05-05T16:56:40.027Z,99781.88
2023-05-05T16:59:08.221Z,99782.47
2023-05-05T17:01:35.668Z,99774.03
2023-05-05T17:04:02.793Z,99764.50
2023-05-05T17:06:31.659Z,99758.75
2023-05-05T17:08:58.910Z,99757.72
2023-05-05T17:11:26.041Z,99753.53
2023-05-05T17:13:52.982Z,99748.06
2023-05-05T17:16:21.268Z,99739.66
2023-05-05T17:18:48.935Z,99743.03
2023-05-05T17:21:17.322Z,99723.31
2023-05-05T17:23:44.220Z,99723.63
2023-05-05T17:26:12.238Z,99717.94
2023-05-05T17:28:39.120Z,99711.63
2023-05-05T17:31:06.265Z,99703.34
2023-05-05T17:33:34.498Z,99725.06
2023-05-05T17:36:02.209Z,99749.44
2023-05-05T17:38:29.040Z,99742.19
2023-05-05T17:40:55.997Z,99741.00
2023-05-05T17:43:22.905Z,99736.72
2023-05-05T17:45:50.087Z,99732.88
2023-05-05T17:48:17.106Z,99733.41
2023-05-05T17:51:36.835Z,99738.31
2023-05-05T17:54:04.382Z,99735.84
2023-05-05T17:56:31.232Z,99739.50
2023-05-05T17:58:58.348Z,99737.06
2023-05-05T18:01:26.868Z,99735.44
2023-05-05T18:03:54.366Z,99733.09
2023-05-05T18:06:21.354Z,99736.34
2023-05-05T18:08:49.634Z,99730.91
2023-05-05T18:11:16.900Z,99727.13
2023-05-05T18:13:43.969Z,99722.72
2023-05-05T18:16:10.924Z,99721.25
2023-05-05T18:18:38.001Z,99722.47
2023-05-05T18:21:04.888Z,99719.06
2023-05-05T18:23:32.144Z,99712.63
2023-05-05T18:26:00.807Z,99720.91
2023-05-05T18:28:28.255Z,99719.59
2023-05-05T18:30:55.520Z,99723.34
2023-05-05T18:33:22.550Z,99728.28
2023-05-05T18:35:50.604Z,99738.25
2023-05-05T18:38:17.886Z,99740.88
2023-05-05T18:40:44.917Z,99744.06
2023-05-05T18:43:13.513Z,99749.53
2023-05-05T18:45:40.433Z,99749.94
2023-05-05T18:48:07.564Z,99749.88
2023-05-05T18:50:36.265Z,99768.50
2023-05-05T18:53:03.170Z,99767.22
2023-05-05T18:55:30.229Z,99770.84
2023-05-05T18:57:57.219Z,99769.00
2023-05-05T19:00:26.477Z,99768.88
2023-05-05T19:02:54.257Z,99772.91
2023-05-05T19:05:21.668Z,99784.81
2023-05-05T19:08:02.777Z,99789.72
2023-05-05T19:10:30.104Z,99793.38
2023-05-05T19:12:57.262Z,99804.81
2023-05-05T19:15:25.661Z,99812.31
2023-05-05T19:17:52.954Z,99810.56
2023-05-05T19:20:20.086Z,99807.91
2023-05-05T19:22:47.373Z,99811.75
2023-05-05T19:25:17.284Z,99808.00
2023-05-05T19:27:44.581Z,99803.72
2023-05-05T19:30:12.548Z,99809.78
2023-05-05T19:32:40.873Z,99808.53
2023-05-05T19:35:09.003Z,99802.81
2023-05-05T19:37:36.937Z,99794.09
2023-05-05T19:40:07.034Z,99802.88
2023-05-05T19:42:34.124Z,99812.97
2023-05-05T19:45:03.653Z,99806.19
2023-05-05T19:47:32.528Z,99803.50
2023-05-05T19:50:00.812Z,99815.75
2023-05-05T19:52:28.052Z,99813.34
2023-05-05T19:54:54.863Z,99816.56
2023-05-05T19:57:22.842Z,99817.50
2023-05-05T19:59:49.732Z,99815.06
2023-05-05T20:02:16.873Z,99824.06
2023-05-05T20:04:44.048Z,99827.09
2023-05-05T20:07:12.506Z,99834.59
2023-05-05T20:09:39.557Z,99824.31
2023-05-05T20:12:07.517Z,99831.81
2023-05-05T20:14:34.890Z,99829.03
2023-05-05T20:17:02.938Z,99828.47
2023-05-05T20:19:30.278Z,99828.88
2023-05-05T20:21:57.167Z,99839.63
2023-05-05T20:24:25.458Z,99837.19
2023-05-05T20:26:52.447Z,99844.72
2023-05-05T20:29:19.354Z,99845.56
2023-05-05T20:31:46.289Z,99839.13
2023-05-05T20:34:13.386Z,99834.50
2023-05-05T20:36:40.276Z,99827.22
2023-05-05T20:39:07.226Z,99818.91
2023-05-05T20:41:40.717Z,99826.56
2023-05-05T20:44:07.872Z,99831.38
2023-05-05T20:46:35.099Z,99828.72
2023-05-05T20:49:02.060Z,99841.38
2023-05-05T20:51:29.122Z,99837.97
2023-05-05T20:53:56.370Z,99830.75
2023-05-05T20:56:23.289Z,99834.97
2023-05-05T20:59:24.628Z,99825.53
2023-05-05T21:01:52.024Z,99837.66
2023-05-05T21:04:18.979Z,99841.16
2023-05-05T21:06:46.190Z,99835.72
2023-05-05T21:09:13.242Z,99842.09
2023-05-05T21:11:43.496Z,99841.03
2023-05-05T21:14:10.597Z,99824.97
2023-05-05T21:16:39.069Z,99824.72
2023-05-05T21:19:06.031Z,99823.03
2023-05-05T21:21:32.933Z,99826.66
2023-05-05T21:23:59.809Z,99827.19
2023-05-05T21:26:26.805Z,99829.41
2023-05-05T21:28:54.051Z,99827.97
2023-05-05T21:31:22.384Z,99823.44
2023-05-05T21:33:50.713Z,99824.25
2023-05-05T21:36:17.875Z,99826.34
2023-05-05T21:38:44.952Z,99832.50
2023-05-05T21:41:11.826Z,99832.44
2023-05-05T21:43:38.874Z,99825.47
2023-05-05T21:46:06.066Z,99824.13
2023-05-05T21:48:33.395Z,99820.38
2023-05-05T21:51:01.635Z,99813.59
2023-05-05T21:53:28.535Z,99816.41
2023-05-05T21:55:55.428Z,99818.00
2023-05-05T21:58:23.663Z,99818.81
2023-05-05T22:00:50.963Z,99818.22
2023-05-05T22:03:18.202Z,99823.00
2023-05-05T22:05:45.125Z,99821.25
2023-05-05T22:08:13.577Z,99825.59
2023-05-05T22:10:40.832Z,99814.03
2023-05-05T22:13:07.948Z,99824.78
2023-05-05T22:15:45.837Z,99820.06
2023-05-05T22:18:14.467Z,99825.19
2023-05-05T22:20:41.617Z,99821.97
2023-05-05T22:23:08.555Z,99816.81
2023-05-05T22:25:36.970Z,99814.91
2023-05-05T22:28:04.421Z,99815.66
2023-05-05T22:30:31.277Z,99814.09
2023-05-05T22:32:58.321Z,99812.44
2023-05-05T22:35:25.207Z,99814.78
2023-05-05T22:37:52.377Z,99810.66
2023-05-05T22:40:19.346Z,99823.47
2023-05-05T22:42:47.626Z,99831.41
2023-05-05T22:45:14.704Z,99821.75
2023-05-05T22:47:41.626Z,99824.75
2023-05-05T22:50:09.903Z,99828.19
2023-05-05T22:52:36.738Z,99829.22
2023-05-05T22:55:04.106Z,99826.44
2023-05-05T22:57:31.008Z,99829.47
2023-05-05T22:59:59.186Z,99827.22
2023-05-05T23:02:26.804Z,99831.38
2023-05-05T23:04:53.899Z,99828.56
2023-05-05T23:07:21.083Z,99817.50
2023-05-05T23:09:48.526Z,99826.72
2023-05-05T23:12:15.808Z,99829.59
2023-05-05T23:14:42.750Z,99837.09
2023-05-05T23:17:11.054Z,99832.25
2023-05-05T23:19:37.993Z,99836.09
2023-05-05T23:22:04.866Z,99834.63
2023-05-05T23:24:31.793Z,99830.44
2023-05-05T23:27:00.785Z,99835.00
2023-05-05T23:29:28.112Z,99826.91
2023-05-05T23:31:55.174Z,99834.50
2023-05-05T23:34:23.772Z,99837.22
2023-05-05T23:36:51.020Z,99837.31
2023-05-05T23:39:18.150Z,99842.59
2023-05-05T23:41:45.042Z,99843.53
2023-05-05T23:44:12.075Z,99837.50
2023-05-05T23:46:39.019Z,99838.25
2023-05-05T23:49:05.932Z,99847.00
2023-05-05T23:51:34.126Z,99837.16
2023-05-05T23:54:01.006Z,99838.25
2023-05-05T23:56:28.558Z,99835.50
2023-05-05T23:58:55.398Z,99835.25
